Etusivu
METAR-TAF:

METAR-TAF

Lentoasemat :

Pärnun lentoasema

Pärnu, Viro

Leveyspiiri: 58-25-09N, Pituuspiiri: 024-28-22E, korkeus merenpinnasta: 14 m

Tämänhetkinen sää

Tämä raportti tehtiin 39 minuuttia sitten, kello 09.50 UTC
Tuuli 7 kn etelästä/lounaasta, vaihdellen etelän/kaakon ja lännen/lounaan välillä
Lämpötila 9°C
Kosteus 87%
Ilmanpaine 1020 hPa
Näkyvyys 10 km tai enemmän
Hajonneita pilviä 2600 ft:n korkeudessa

METAR: EEPU 170950Z 20007KT 160V250 9999 BKN026 09/07 Q1020

Aika: 12:29 (10:29 UTC)


TAF: puuttuu

Säähavainnot ja -ennusteet yli 4000 lentoasemalta (METAR- ja TAF-raportit).

Käytössä olevat sääasemat on merkitty karttaan keltaisilla ja punaisilla pisteillä.

Aseta hiiri pisteen päälle nähdäksesi sääaseman nimen.

Klikkaa sitten nähdäksesi säähavainnot ja -ennusteet.

Kartan vaihtaminen: klikkaa mustalla rastilla varustettuja vihreitä pisteitä, niin voit zoomata sisään; viivalla varustettua vihreää pistettä, niin voit zoomata ulos tai vihreitä nuolia, niin pääset viereisille kartoille.


METAR-TAF: